Time;durP1;ratioP1;P1;durP2;ratioP2;P2;SDS_P1;SDS_P2;PMS_P1;PMS_P2;Temp;Humidity;BMP_temperature;BMP_pressure;BME280_temperature;BME280_humidity;BME280_pressure;Samples;Min_cycle;Max_cycle;Signal;HPM_P1;HPM_P2
2021/01/23 00:00:12;;;;;;;55.67;25.60;;;;;;;1.76;68.41;99123.78;5050419;28;20187;-62
2021/01/23 00:02:38;;;;;;;54.17;24.48;;;;;;;1.79;68.57;99138.56;5050003;28;20060;-61
2021/01/23 00:05:04;;;;;;;57.05;25.75;;;;;;;1.75;68.11;99126.47;5049934;28;20511;-61
2021/01/23 00:07:31;;;;;;;56.75;24.83;;;;;;;1.52;68.18;99089.88;5049653;28;20040;-61
2021/01/23 00:09:56;;;;;;;59.40;26.13;;;;;;;1.74;68.66;99125.66;5050048;28;20037;-61
2021/01/23 00:12:22;;;;;;;62.00;26.25;;;;;;;1.81;68.42;99124.34;5049600;28;20067;-59
2021/01/23 00:14:47;;;;;;;58.05;25.42;;;;;;;1.80;68.36;99119.16;5049466;28;20424;-58
2021/01/23 00:17:13;;;;;;;60.42;26.38;;;;;;;1.47;68.41;99062.91;5050051;28;20049;-61
2021/01/23 00:19:38;;;;;;;56.63;25.48;;;;;;;1.73;68.33;99113.38;5049875;28;20230;-59
2021/01/23 00:22:04;;;;;;;53.25;25.23;;;;;;;1.55;68.16;99087.06;5049368;28;20408;-59
2021/01/23 00:24:29;;;;;;;55.00;24.77;;;;;;;1.80;68.59;99116.50;5049836;28;20068;-60
2021/01/23 00:26:55;;;;;;;56.50;26.27;;;;;;;1.80;68.85;99114.75;5050030;28;20044;-59
2021/01/23 00:29:20;;;;;;;58.50;25.38;;;;;;;1.82;68.46;99120.78;5049552;28;20049;-58
2021/01/23 00:31:47;;;;;;;56.10;25.10;;;;;;;1.79;67.99;99118.31;5049448;28;20037;-58
2021/01/23 00:34:12;;;;;;;54.95;24.63;;;;;;;1.86;68.15;99118.84;5050006;28;20497;-60
2021/01/23 00:36:38;;;;;;;56.88;26.20;;;;;;;1.81;68.26;99121.72;5050069;28;20090;-60
2021/01/23 00:39:05;;;;;;;56.35;24.90;;;;;;;1.82;68.56;99128.69;5049558;28;20539;-60
2021/01/23 00:41:31;;;;;;;55.70;25.52;;;;;;;1.79;68.53;99114.81;5049369;28;20029;-60
2021/01/23 00:43:57;;;;;;;52.88;25.23;;;;;;;1.85;68.85;99123.25;5049930;28;20116;-60
2021/01/23 00:46:22;;;;;;;52.75;25.05;;;;;;;1.66;68.68;99075.94;5049827;28;20041;-59
2021/01/23 00:48:48;;;;;;;60.22;25.90;;;;;;;1.83;68.74;99111.09;5049818;28;20044;-52
2021/01/23 00:51:14;;;;;;;55.20;24.13;;;;;;;1.77;68.55;99109.63;5049307;28;20564;-60
2021/01/23 00:53:39;;;;;;;55.88;25.45;;;;;;;1.82;68.89;99115.50;5049690;28;20032;-59
2021/01/23 00:56:05;;;;;;;63.65;25.75;;;;;;;1.84;68.75;99121.53;5050688;28;20120;-61
2021/01/23 00:58:31;;;;;;;54.63;24.50;;;;;;;1.84;68.56;99123.34;5053624;28;20037;-61
2021/01/23 01:00:56;;;;;;;62.58;27.30;;;;;;;1.84;68.43;99115.44;5052924;28;20048;-61
2021/01/23 01:03:22;;;;;;;56.47;25.80;;;;;;;1.52;68.78;99081.09;5053216;28;20456;-61
2021/01/23 01:05:47;;;;;;;59.28;26.20;;;;;;;1.82;68.56;99123.41;5053761;28;20112;-61
2021/01/23 01:08:13;;;;;;;55.45;27.25;;;;;;;1.79;68.97;99118.31;5051620;28;20037;-62
2021/01/23 01:10:42;;;;;;;64.13;27.88;;;;;;;1.81;69.32;99110.28;5052578;28;20087;-61
2021/01/23 01:13:07;;;;;;;56.38;26.35;;;;;;;1.79;69.35;99105.13;5052925;28;20040;-59
2021/01/23 01:15:32;;;;;;;61.35;27.73;;;;;;;1.52;68.93;99050.31;5053485;28;20033;-60
2021/01/23 01:17:58;;;;;;;58.78;27.60;;;;;;;1.86;69.06;99100.34;5052994;28;20039;-61
2021/01/23 01:20:23;;;;;;;62.17;26.83;;;;;;;1.77;69.25;99083.25;5052503;28;20107;-61
2021/01/23 01:22:49;;;;;;;63.50;27.38;;;;;;;1.90;69.24;99098.38;5053128;28;20119;-61
2021/01/23 01:25:14;;;;;;;59.88;26.75;;;;;;;1.91;69.29;99105.34;5053044;28;20066;-61
2021/01/23 01:27:40;;;;;;;66.40;28.13;;;;;;;1.94;68.79;99100.75;5052540;28;20039;-61
2021/01/23 01:30:06;;;;;;;62.72;26.08;;;;;;;1.97;68.96;99099.75;5052321;28;20052;-61
2021/01/23 01:32:31;;;;;;;60.33;27.48;;;;;;;1.46;68.86;99021.66;5052110;28;20481;-60
2021/01/23 01:34:57;;;;;;;56.25;26.15;;;;;;;1.40;68.91;99012.28;5052106;28;20072;-61
2021/01/23 01:37:22;;;;;;;57.17;26.33;;;;;;;1.88;68.96;99105.53;5052180;28;20041;-60
2021/01/23 01:39:47;;;;;;;57.67;26.85;;;;;;;1.88;69.59;99106.41;5052639;28;20087;-60
2021/01/23 01:42:13;;;;;;;60.90;27.70;;;;;;;1.90;69.21;99095.72;5052425;28;20051;-61
2021/01/23 01:44:38;;;;;;;59.28;26.35;;;;;;;1.82;69.39;99083.00;5052260;28;20075;-61
2021/01/23 01:47:04;;;;;;;63.40;27.67;;;;;;;1.94;69.66;99111.31;5052167;28;20044;-60
2021/01/23 01:49:30;;;;;;;61.38;26.98;;;;;;;1.97;69.29;99105.03;5052611;28;20043;-61
2021/01/23 01:51:56;;;;;;;67.00;28.95;;;;;;;1.98;68.92;99104.09;5052387;28;20036;-60
2021/01/23 01:54:23;;;;;;;64.95;27.67;;;;;;;1.98;69.13;99099.66;5051893;28;20081;-54
2021/01/23 01:56:49;;;;;;;61.28;26.88;;;;;;;2.00;68.94;99099.56;5052480;28;20438;-61
2021/01/23 01:59:15;;;;;;;61.78;27.80;;;;;;;1.97;69.16;99102.38;5052214;28;20037;-60
2021/01/23 02:01:40;;;;;;;63.67;28.52;;;;;;;1.94;69.53;99092.00;5052074;28;20035;-59
2021/01/23 02:04:23;;;;;;;64.55;26.45;;;;;;;1.94;69.40;99094.66;5052425;28;20128;-61
2021/01/23 02:07:07;;;;;;;61.63;27.02;;;;;;;2.02;69.97;99087.13;5052403;28;20039;-60
2021/01/23 02:10:05;;;;;;;60.33;25.98;;;;;;;2.04;69.97;99084.38;5050891;28;20486;-60
2021/01/23 02:13:02;;;;;;;59.03;26.38;;;;;;;1.94;69.71;99086.72;5052011;28;20037;-61
2021/01/23 02:15:33;;;;;;;58.00;24.83;;;;;;;1.92;69.36;99086.81;5051552;28;20041;-55
2021/01/23 02:18:05;;;;;;;59.95;26.02;;;;;;;1.98;69.41;99086.44;5051627;28;20033;-62
2021/01/23 02:20:48;;;;;;;57.53;26.77;;;;;;;2.07;69.84;99097.44;5051948;28;20368;-61
2021/01/23 02:23:22;;;;;;;56.97;25.95;;;;;;;2.00;69.72;99081.91;5051741;28;20462;-60
2021/01/23 02:26:10;;;;;;;61.92;26.83;;;;;;;2.09;69.67;99099.03;5051155;28;20036;-60
2021/01/23 02:28:57;;;;;;;59.63;25.15;;;;;;;2.06;69.78;99090.47;5051130;28;20060;-61
2021/01/23 02:31:26;;;;;;;62.35;26.67;;;;;;;1.97;69.63;99086.53;5052141;28;20090;-61
2021/01/23 02:33:54;;;;;;;63.85;26.85;;;;;;;2.02;69.38;99097.69;5051811;28;20056;-62
2021/01/23 02:36:24;;;;;;;62.15;27.80;;;;;;;2.10;69.57;99107.81;5051051;28;20376;-61
2021/01/23 02:38:51;;;;;;;60.85;26.65;;;;;;;1.93;69.19;99080.59;5051928;28;20032;-61
2021/01/23 02:41:17;;;;;;;62.72;27.17;;;;;;;2.07;69.70;99116.75;5051737;28;20033;-61
2021/01/23 02:43:43;;;;;;;62.65;27.60;;;;;;;2.07;69.56;99100.06;5051406;28;20121;-60
2021/01/23 02:46:15;;;;;;;60.08;26.55;;;;;;;2.03;69.89;99087.97;5050863;28;20037;-60
2021/01/23 02:48:41;;;;;;;59.95;25.65;;;;;;;2.08;69.42;99099.13;5051468;28;20388;-62
2021/01/23 02:51:20;;;;;;;60.70;26.48;;;;;;;2.09;69.67;99088.47;5051608;28;20047;-60
2021/01/23 02:53:48;;;;;;;59.55;26.60;;;;;;;2.02;69.54;99076.56;5051176;28;20112;-60
2021/01/23 02:56:24;;;;;;;62.40;26.42;;;;;;;2.18;69.73;99091.53;5050956;28;20060;-61
2021/01/23 02:58:51;;;;;;;61.42;26.13;;;;;;;2.13;69.48;99092.63;5051292;28;20036;-61
2021/01/23 03:01:20;;;;;;;60.65;26.58;;;;;;;2.06;69.75;99071.97;5051599;28;20029;-61
2021/01/23 03:03:52;;;;;;;59.63;26.02;;;;;;;2.19;69.50;99101.16;5050713;28;20094;-60
2021/01/23 03:06:17;;;;;;;58.92;26.25;;;;;;;2.17;69.11;99095.97;5050579;28;20040;-63
2021/01/23 03:08:43;;;;;;;56.40;25.73;;;;;;;2.20;69.56;99101.06;5051137;28;20033;-62
2021/01/23 03:11:10;;;;;;;57.63;26.60;;;;;;;2.20;69.61;99092.31;5051114;28;20517;-61
2021/01/23 03:13:35;;;;;;;61.15;27.50;;;;;;;2.11;69.43;99070.75;5050955;28;20064;-61
2021/01/23 03:16:01;;;;;;;60.20;26.75;;;;;;;2.25;69.02;99092.88;5050226;28;20067;-61
2021/01/23 03:18:26;;;;;;;53.55;25.05;;;;;;;2.06;69.29;99070.16;5050558;28;20055;-51
2021/01/23 03:20:52;;;;;;;58.80;25.70;;;;;;;2.24;69.28;99091.19;5051085;28;20052;-62
2021/01/23 03:23:17;;;;;;;59.83;25.15;;;;;;;2.23;69.53;99081.56;5050465;28;20036;-60
2021/01/23 03:25:43;;;;;;;56.03;26.25;;;;;;;1.90;69.38;99030.59;5050253;28;20048;-60
2021/01/23 03:28:08;;;;;;;58.67;26.83;;;;;;;2.23;69.57;99085.03;5050310;28;20028;-61
2021/01/23 03:30:34;;;;;;;55.92;24.83;;;;;;;2.25;69.53;99077.03;5049790;28;20055;-60
2021/01/23 03:32:59;;;;;;;62.85;26.35;;;;;;;2.21;69.45;99075.50;5049921;28;20133;-61
2021/01/23 03:35:25;;;;;;;62.28;25.80;;;;;;;2.23;69.30;99076.28;5050430;28;20062;-60
2021/01/23 03:37:51;;;;;;;55.55;25.50;;;;;;;2.23;69.67;99090.31;5050249;28;20076;-60
2021/01/23 03:40:17;;;;;;;59.22;25.75;;;;;;;2.24;69.72;99089.38;5050503;28;20064;-60
2021/01/23 03:42:43;;;;;;;56.95;25.42;;;;;;;2.18;69.80;99076.53;5050106;28;20072;-60
2021/01/23 03:45:10;;;;;;;57.83;25.40;;;;;;;2.09;69.76;99062.06;5050490;28;20480;-62
2021/01/23 03:47:36;;;;;;;63.17;26.25;;;;;;;2.23;69.51;99073.63;5050152;28;20477;-57
2021/01/23 03:50:04;;;;;;;64.18;27.25;;;;;;;2.27;69.88;99080.44;5049678;28;20570;-58
2021/01/23 03:52:30;;;;;;;61.22;26.35;;;;;;;2.29;69.49;99073.25;5050289;28;20033;-59
2021/01/23 03:54:56;;;;;;;54.05;24.80;;;;;;;2.03;69.40;99045.72;5050192;28;20449;-61
2021/01/23 03:57:21;;;;;;;61.95;27.17;;;;;;;1.92;69.46;99017.28;5049955;28;20060;-60
2021/01/23 03:59:46;;;;;;;63.97;27.70;;;;;;;2.31;69.60;99083.75;5050218;28;20059;-60
2021/01/23 04:02:12;;;;;;;64.03;27.83;;;;;;;2.21;69.58;99062.31;5050163;28;20045;-61
2021/01/23 04:04:39;;;;;;;65.80;28.00;;;;;;;2.18;69.82;99065.13;5049379;28;20033;-61
2021/01/23 04:07:04;;;;;;;65.57;28.35;;;;;;;2.32;69.87;99091.56;5049913;28;20492;-60
2021/01/23 04:09:30;;;;;;;62.10;28.33;;;;;;;2.32;69.86;99081.00;5050497;28;20036;-54
2021/01/23 04:11:55;;;;;;;61.03;26.63;;;;;;;2.34;70.01;99087.03;5049973;28;20037;-60
2021/01/23 04:14:20;;;;;;;57.95;25.98;;;;;;;2.34;70.11;99089.69;5049593;28;20127;-61
2021/01/23 04:16:47;;;;;;;61.22;26.63;;;;;;;2.37;69.81;99086.88;5050382;28;20099;-59
2021/01/23 04:19:13;;;;;;;59.95;26.58;;;;;;;2.33;69.76;99080.06;5050092;28;20044;-60
2021/01/23 04:21:39;;;;;;;69.03;28.40;;;;;;;2.37;69.86;99094.78;5049871;28;20171;-61
2021/01/23 04:24:05;;;;;;;72.32;29.35;;;;;;;2.36;70.23;99093.09;5049786;28;20512;-60
2021/01/23 04:26:30;;;;;;;67.95;29.13;;;;;;;2.35;70.00;99091.38;5050140;28;20033;-58
2021/01/23 04:28:55;;;;;;;59.13;23.98;;;;;;;2.39;70.20;99100.00;5050155;28;20064;-60
2021/01/23 04:31:22;;;;;;;61.35;25.38;;;;;;;2.40;69.78;99107.81;5050656;28;20401;-61
2021/01/23 04:33:47;;;;;;;61.70;25.35;;;;;;;2.36;70.23;99106.28;5053812;28;20044;-61
2021/01/23 04:36:13;;;;;;;62.65;25.65;;;;;;;2.24;70.20;99091.19;5054339;28;20392;-61
2021/01/23 04:38:38;;;;;;;61.40;25.77;;;;;;;1.96;70.30;99034.69;5053773;28;20127;-60
2021/01/23 04:41:04;;;;;;;53.90;23.77;;;;;;;2.38;70.07;99096.50;5053696;28;20036;-59
2021/01/23 04:43:29;;;;;;;55.58;24.10;;;;;;;2.42;70.36;99110.38;5054039;28;20032;-60
2021/01/23 04:45:55;;;;;;;56.33;23.92;;;;;;;2.41;70.18;99098.97;5054130;28;20099;-60
2021/01/23 04:48:20;;;;;;;53.95;23.05;;;;;;;2.46;70.08;99100.50;5053803;28;20039;-60
2021/01/23 04:50:47;;;;;;;56.85;24.17;;;;;;;2.44;70.00;99095.28;5053230;28;20044;-60
2021/01/23 04:53:13;;;;;;;50.88;21.25;;;;;;;2.37;69.79;99081.59;5052949;28;20457;-62
2021/01/23 04:55:38;;;;;;;57.92;23.10;;;;;;;2.09;70.11;99050.66;5053838;28;20037;-59
2021/01/23 04:58:04;;;;;;;51.83;22.75;;;;;;;2.14;70.02;99049.44;5053353;28;20501;-61
2021/01/23 05:00:29;;;;;;;55.20;24.45;;;;;;;2.43;69.86;99096.22;5053558;28;20084;-61
2021/01/23 05:02:59;;;;;;;54.33;21.80;;;;;;;2.42;70.21;99091.88;5053016;28;20028;-61
2021/01/23 05:05:26;;;;;;;57.22;25.23;;;;;;;2.41;69.82;99093.69;5053440;28;20180;-61
2021/01/23 05:07:52;;;;;;;53.42;24.00;;;;;;;2.27;69.84;99083.06;5053154;28;20119;-59
2021/01/23 05:10:23;;;;;;;58.17;23.98;;;;;;;2.35;70.44;99091.38;5052991;28;20468;-61
2021/01/23 05:12:51;;;;;;;59.78;25.63;;;;;;;2.42;70.18;99099.81;5052613;28;20040;-60
2021/01/23 05:15:35;;;;;;;60.58;25.40;;;;;;;2.48;70.60;99101.25;5052775;28;20075;-61
2021/01/23 05:18:08;;;;;;;56.55;24.08;;;;;;;2.48;70.26;99111.81;5053043;28;20036;-60
2021/01/23 05:20:50;;;;;;;60.13;23.70;;;;;;;2.53;70.71;99105.34;5052562;28;20040;-55
2021/01/23 05:23:23;;;;;;;54.22;23.58;;;;;;;2.53;70.15;99112.41;5052690;28;20484;-62
2021/01/23 05:25:54;;;;;;;55.05;22.45;;;;;;;2.50;69.97;99120.50;5052335;28;20117;-62
2021/01/23 05:28:36;;;;;;;51.60;22.90;;;;;;;2.54;70.26;99111.44;5052479;28;20040;-60
2021/01/23 05:31:04;;;;;;;56.63;24.42;;;;;;;2.48;69.88;99109.19;5052625;28;20029;-59
2021/01/23 05:33:33;;;;;;;51.67;22.98;;;;;;;2.50;70.67;99126.63;5052874;28;20041;-61
2021/01/23 05:36:05;;;;;;;53.13;22.45;;;;;;;2.49;69.96;99108.25;5052427;28;20043;-60
2021/01/23 05:38:33;;;;;;;52.38;22.73;;;;;;;2.52;70.45;99115.97;5052644;28;20037;-63
2021/01/23 05:41:11;;;;;;;54.00;23.38;;;;;;;2.53;70.33;99113.25;5052448;28;20120;-63
2021/01/23 05:43:53;;;;;;;52.13;22.95;;;;;;;2.43;70.67;99096.22;5050835;28;20032;-61
2021/01/23 05:46:27;;;;;;;48.95;22.77;;;;;;;2.50;70.08;99110.78;5052394;28;20037;-63
2021/01/23 05:48:54;;;;;;;54.00;22.75;;;;;;;2.52;70.22;99110.69;5052497;28;20037;-63
2021/01/23 05:51:20;;;;;;;54.75;22.73;;;;;;;2.50;70.28;99102.84;5051829;28;20041;-59
2021/01/23 05:53:47;;;;;;;51.22;22.55;;;;;;;2.57;70.24;99104.22;5052097;28;20036;-59
2021/01/23 05:56:13;;;;;;;49.72;21.90;;;;;;;2.07;70.32;99021.69;5052447;28;20605;-60
2021/01/23 05:58:40;;;;;;;61.00;24.27;;;;;;;2.58;70.05;99103.25;5051916;28;20051;-62
2021/01/23 06:01:11;;;;;;;51.13;23.00;;;;;;;2.63;70.75;99097.69;5051819;28;20174;-53
2021/01/23 06:03:43;;;;;;;53.15;23.33;;;;;;;2.63;70.30;99099.50;5052375;28;20029;-60
2021/01/23 06:06:09;;;;;;;54.53;23.52;;;;;;;2.63;70.33;99096.84;5051781;28;20044;-60
2021/01/23 06:08:46;;;;;;;53.08;23.02;;;;;;;2.68;70.36;99116.78;5051198;28;20028;-63
2021/01/23 06:11:17;;;;;;;60.10;24.73;;;;;;;2.65;70.27;99113.47;5051429;28;20428;-61
2021/01/23 06:13:45;;;;;;;50.20;22.63;;;;;;;2.60;70.09;99108.44;5051749;28;20041;-61
2021/01/23 06:16:32;;;;;;;51.30;23.45;;;;;;;2.69;70.66;99107.03;5052243;28;20089;-60
2021/01/23 06:19:26;;;;;;;55.40;24.10;;;;;;;2.73;70.33;99113.84;5051251;28;20515;-61
2021/01/23 06:21:52;;;;;;;54.05;23.50;;;;;;;2.69;70.07;99107.91;5051982;28;20087;-60
2021/01/23 06:24:29;;;;;;;52.85;23.90;;;;;;;2.76;70.20;99118.09;5051483;28;20095;-61
2021/01/23 06:26:55;;;;;;;57.72;23.25;;;;;;;2.72;70.10;99106.84;5050940;28;20159;-59
2021/01/23 06:29:37;;;;;;;55.00;24.00;;;;;;;2.76;70.31;99103.09;5051532;28;20061;-61
2021/01/23 06:32:11;;;;;;;54.05;24.00;;;;;;;2.76;70.24;99094.31;5050619;28;20044;-61
2021/01/23 06:34:45;;;;;;;52.53;22.50;;;;;;;2.80;70.38;99106.41;5051618;28;20080;-66
2021/01/23 06:37:39;;;;;;;55.38;23.70;;;;;;;2.85;70.31;99104.31;5051330;28;20037;-66
2021/01/23 06:40:24;;;;;;;54.50;23.50;;;;;;;2.70;70.11;99077.88;5051433;28;20035;-67
2021/01/23 06:42:51;;;;;;;58.25;24.42;;;;;;;2.39;69.64;99037.41;5051560;28;20029;-65
2021/01/23 06:45:25;;;;;;;60.60;25.42;;;;;;;2.85;70.15;99107.84;5051210;28;20037;-68
2021/01/23 06:47:56;;;;;;;54.47;23.77;;;;;;;2.89;70.07;99103.19;5050766;28;20043;-66
2021/01/23 06:50:32;;;;;;;51.00;23.50;;;;;;;2.90;70.35;99107.56;5051490;28;20394;-67
2021/01/23 06:52:58;;;;;;;51.38;23.92;;;;;;;2.91;69.95;99111.03;5051102;28;20045;-67
2021/01/23 06:55:46;;;;;;;53.30;23.50;;;;;;;2.99;70.38;99099.06;5050408;28;20039;-68
2021/01/23 06:58:23;;;;;;;57.00;23.45;;;;;;;2.95;69.87;99096.69;5050522;28;20048;-66
2021/01/23 07:00:50;;;;;;;60.58;25.60;;;;;;;2.61;69.50;99045.88;5050833;28;20036;-67
2021/01/23 07:03:17;;;;;;;52.00;23.08;;;;;;;2.98;69.58;99094.72;5048758;28;20567;-65
2021/01/23 07:05:54;;;;;;;55.60;25.02;;;;;;;2.95;70.24;99092.28;5049463;28;20246;-66
2021/01/23 07:08:23;;;;;;;58.22;23.73;;;;;;;3.00;69.46;99095.47;5050464;28;20496;-68
2021/01/23 07:11:30;;;;;;;61.78;23.90;;;;;;;3.07;69.78;99114.47;5050960;28;20131;-68
2021/01/23 07:14:04;;;;;;;59.85;23.48;;;;;;;3.06;69.50;99120.72;5049817;28;20048;-66
2021/01/23 07:16:31;;;;;;;59.08;25.38;;;;;;;3.04;69.48;99104.09;5050166;28;20037;-66
2021/01/23 07:19:02;;;;;;;57.50;23.92;;;;;;;3.05;69.55;99099.63;5048829;28;20043;-67
2021/01/23 07:21:30;;;;;;;54.88;23.80;;;;;;;3.03;69.50;99106.81;5050286;28;20519;-66
2021/01/23 07:23:56;;;;;;;55.10;24.80;;;;;;;3.05;69.55;99104.91;5066164;28;20036;-67
2021/01/23 07:26:23;;;;;;;62.08;26.75;;;;;;;3.10;69.49;99110.78;5069538;28;20060;-67
2021/01/23 07:28:56;;;;;;;55.63;24.27;;;;;;;3.12;70.24;99111.53;5070192;28;20075;-66
2021/01/23 07:31:26;;;;;;;55.63;23.67;;;;;;;3.17;69.84;99112.13;5069603;28;20460;-66
2021/01/23 07:33:53;;;;;;;58.15;25.13;;;;;;;3.17;69.55;99106.81;5069846;28;20052;-66
2021/01/23 07:36:32;;;;;;;58.42;25.50;;;;;;;3.24;69.65;99109.91;5070077;28;20048;-68
2021/01/23 07:39:00;;;;;;;59.67;24.35;;;;;;;3.22;69.07;99112.69;5069997;28;20044;-66
2021/01/23 07:41:30;;;;;;;65.88;26.35;;;;;;;3.22;69.79;99110.03;5069743;28;20044;-69
2021/01/23 07:43:57;;;;;;;53.58;24.17;;;;;;;3.19;69.40;99117.28;5070178;28;20127;-69
2021/01/23 07:46:23;;;;;;;56.45;24.00;;;;;;;3.26;69.28;99111.53;5069642;28;20361;-67
2021/01/23 07:48:49;;;;;;;53.85;23.42;;;;;;;3.16;69.24;99105.97;5069043;28;20089;-68
2021/01/23 07:51:25;;;;;;;58.53;25.77;;;;;;;3.34;69.86;99120.78;5069978;28;20407;-69
2021/01/23 07:54:07;;;;;;;56.50;22.90;;;;;;;3.29;69.67;99100.75;5069221;28;20037;-69
2021/01/23 07:56:33;;;;;;;54.08;24.23;;;;;;;3.39;68.93;99124.03;5069595;28;20032;-69
2021/01/23 07:58:59;;;;;;;59.97;25.13;;;;;;;3.38;68.81;99117.03;5070296;28;20043;-68
2021/01/23 08:01:25;;;;;;;57.78;24.15;;;;;;;3.34;69.29;99126.94;5069638;28;20036;-68
2021/01/23 08:03:50;;;;;;;52.05;23.25;;;;;;;3.36;68.85;99121.53;5069315;28;20396;-66
2021/01/23 08:06:23;;;;;;;52.35;22.90;;;;;;;3.39;69.39;99121.38;5069244;28;20032;-67
2021/01/23 08:08:49;;;;;;;61.42;24.92;;;;;;;3.43;69.08;99122.88;5070435;28;20090;-66
2021/01/23 08:11:41;;;;;;;56.35;23.45;;;;;;;3.57;69.36;99130.78;5067984;28;20122;-67
2021/01/23 08:14:16;;;;;;;55.72;22.88;;;;;;;3.56;68.99;99131.72;5068272;28;20548;-65
2021/01/23 08:16:52;;;;;;;59.35;25.10;;;;;;;3.57;69.08;99130.78;5070120;28;20029;-63
2021/01/23 08:19:18;;;;;;;57.72;24.40;;;;;;;3.43;68.80;99125.53;5069934;28;20044;-65
2021/01/23 08:22:04;;;;;;;56.40;23.88;;;;;;;3.54;68.87;99112.44;5069664;28;20033;-68
2021/01/23 08:24:30;;;;;;;59.38;24.15;;;;;;;3.45;68.49;99102.47;5069900;28;20090;-67
2021/01/23 08:27:18;;;;;;;55.75;23.38;;;;;;;3.61;68.76;99112.91;5070007;28;20048;-66
2021/01/23 08:29:45;;;;;;;63.53;25.58;;;;;;;3.65;68.82;99135.59;5068335;28;20105;-63
2021/01/23 08:32:11;;;;;;;58.13;25.35;;;;;;;3.66;68.25;99131.16;5050555;28;20217;-68
2021/01/23 08:34:37;;;;;;;56.85;25.15;;;;;;;3.26;68.93;99063.91;5049303;28;20601;-65
2021/01/23 08:37:03;;;;;;;52.85;23.98;;;;;;;3.75;68.72;99124.44;5049938;28;20159;-67
2021/01/23 08:39:28;;;;;;;51.35;23.52;;;;;;;3.74;68.77;99142.13;5048524;28;20037;-70
2021/01/23 08:41:54;;;;;;;60.33;26.15;;;;;;;3.76;68.28;99134.91;5048014;28;20078;-68
2021/01/23 08:44:20;;;;;;;50.80;23.45;;;;;;;3.81;68.60;99134.63;5049135;28;20903;-67
2021/01/23 08:46:45;;;;;;;54.20;25.13;;;;;;;3.75;68.56;99132.38;5049579;28;20037;-64
2021/01/23 08:49:11;;;;;;;56.47;26.08;;;;;;;3.67;68.61;99119.63;5049645;28;20108;-65
2021/01/23 08:51:37;;;;;;;56.75;24.90;;;;;;;3.83;68.81;99157.41;5048970;28;20080;-65
2021/01/23 08:54:03;;;;;;;55.03;25.00;;;;;;;3.85;68.54;99150.22;5049174;28;20045;-72
2021/01/23 08:56:29;;;;;;;56.97;25.13;;;;;;;3.85;68.46;99152.88;5049571;28;20040;-70
2021/01/23 08:58:54;;;;;;;63.03;27.60;;;;;;;3.82;68.01;99147.75;5049205;28;20044;-73
2021/01/23 09:01:20;;;;;;;70.20;28.45;;;;;;;3.90;68.06;99152.56;5048997;28;20124;-71
2021/01/23 09:03:45;;;;;;;78.75;31.52;;;;;;;3.86;68.02;99151.06;5048894;28;20402;-69
2021/01/23 09:06:11;;;;;;;61.58;26.63;;;;;;;3.53;68.23;99089.56;5049823;28;20037;-73
2021/01/23 09:08:37;;;;;;;59.08;26.25;;;;;;;3.96;68.14;99156.63;5048897;28;20033;-67
2021/01/23 09:11:02;;;;;;;64.63;28.08;;;;;;;3.98;68.40;99146.78;5048790;28;20068;-62
2021/01/23 09:13:28;;;;;;;63.92;27.75;;;;;;;3.97;68.31;99142.44;5030614;28;20405;-60
2021/01/23 09:15:54;;;;;;;62.35;27.95;;;;;;;3.99;67.98;99159.09;5048852;28;20045;-67
2021/01/23 09:18:19;;;;;;;59.55;28.70;;;;;;;3.73;68.43;99125.38;5051873;28;20523;-71
2021/01/23 09:20:45;;;;;;;72.78;29.48;;;;;;;3.99;68.34;99145.84;5052314;28;20060;-70
2021/01/23 09:23:10;;;;;;;69.63;30.08;;;;;;;3.94;68.37;99153.25;5052690;28;20039;-72
2021/01/23 09:25:36;;;;;;;56.50;26.20;;;;;;;3.83;68.66;99130.94;5052892;28;20037;-65
2021/01/23 09:28:01;;;;;;;58.33;25.95;;;;;;;3.99;68.02;99149.34;5079117;28;20024;-70
2021/01/23 09:30:27;;;;;;;62.38;27.17;;;;;;;4.01;68.23;99149.25;5087710;28;20094;-68
2021/01/23 09:32:52;;;;;;;60.22;27.48;;;;;;;3.97;68.29;99148.56;5075086;28;20506;-64
2021/01/23 09:35:17;;;;;;;57.38;27.08;;;;;;;3.91;68.54;99159.56;5084889;28;20570;-65
2021/01/23 09:37:43;;;;;;;64.18;28.52;;;;;;;3.91;68.66;99145.50;5077062;28;20036;-66
2021/01/23 09:40:09;;;;;;;58.47;27.35;;;;;;;3.90;68.59;99152.56;5077856;28;20060;-64
2021/01/23 09:42:35;;;;;;;62.50;27.60;;;;;;;3.75;68.62;99137.69;5088627;28;20054;-66
2021/01/23 09:45:00;;;;;;;63.70;28.05;;;;;;;3.77;68.58;99139.28;5076129;28;20028;-65
2021/01/23 09:47:26;;;;;;;58.42;27.35;;;;;;;3.85;69.05;99152.88;5083752;28;20029;-65
2021/01/23 09:49:52;;;;;;;56.22;27.05;;;;;;;3.88;69.07;99159.78;5060721;28;20048;-62
2021/01/23 09:52:17;;;;;;;59.15;27.05;;;;;;;3.65;69.26;99129.47;5059634;28;20369;-61
2021/01/23 09:54:42;;;;;;;59.47;26.95;;;;;;;3.83;69.19;99168.00;5060777;28;20625;-62
2021/01/23 09:57:08;;;;;;;56.65;27.08;;;;;;;3.82;69.57;99166.31;5062018;28;20166;-62
2021/01/23 09:59:34;;;;;;;60.10;27.55;;;;;;;3.77;69.46;99168.41;5064161;28;20045;-76
2021/01/23 10:02:00;;;;;;;56.22;27.30;;;;;;;3.71;69.52;99169.63;5058600;28;20037;-71
2021/01/23 10:04:27;;;;;;;61.70;27.15;;;;;;;3.74;69.87;99179.19;5065032;28;20041;-68
2021/01/23 10:06:52;;;;;;;60.28;26.95;;;;;;;3.72;70.43;99175.78;5060582;28;20465;-70
2021/01/23 10:09:20;;;;;;;62.10;27.80;;;;;;;3.75;70.38;99175.59;5061433;28;20194;-68
2021/01/23 10:11:46;;;;;;;71.80;28.83;;;;;;;3.67;69.86;99167.28;5055861;28;20043;-70
2021/01/23 10:14:11;;;;;;;63.35;27.02;;;;;;;3.57;70.69;99149.31;5066016;28;20017;-66
2021/01/23 10:16:38;;;;;;;65.30;28.67;;;;;;;3.75;70.80;99169.47;5070709;28;20512;-70
2021/01/23 10:19:04;;;;;;;57.65;27.77;;;;;;;3.70;70.29;99167.09;5070085;28;20420;-65
2021/01/23 10:21:30;;;;;;;66.00;28.60;;;;;;;3.69;70.21;99154.81;5058667;28;20041;-72
2021/01/23 10:23:57;;;;;;;61.90;27.23;;;;;;;3.80;70.47;99175.31;5064192;28;20092;-69
2021/01/23 10:26:23;;;;;;;55.60;27.00;;;;;;;3.77;70.04;99178.16;5071363;28;20107;-72
2021/01/23 10:28:48;;;;;;;55.90;26.58;;;;;;;3.70;70.01;99173.22;5068773;28;20144;-63
2021/01/23 10:31:14;;;;;;;48.75;23.85;;;;;;;3.66;70.49;99162.94;5070349;28;20082;-71
2021/01/23 10:33:40;;;;;;;57.35;26.42;;;;;;;3.70;70.80;99164.44;5070451;28;20050;-73
2021/01/23 10:36:06;;;;;;;54.35;26.88;;;;;;;3.74;70.68;99168.59;5069171;28;20466;-68
2021/01/23 10:38:31;;;;;;;54.90;27.23;;;;;;;3.67;71.00;99156.69;5070312;28;20102;-70
2021/01/23 10:40:56;;;;;;;56.65;25.67;;;;;;;3.67;70.68;99156.69;5072656;28;20037;-67
2021/01/23 10:43:22;;;;;;;57.80;27.02;;;;;;;3.66;70.90;99166.41;5069892;28;20131;-64
2021/01/23 10:45:47;;;;;;;55.90;27.52;;;;;;;3.64;71.15;99165.66;5069671;28;20453;-64
2021/01/23 10:48:13;;;;;;;55.50;27.25;;;;;;;3.66;71.36;99187.59;5069490;28;20086;-70
2021/01/23 10:50:38;;;;;;;54.22;26.35;;;;;;;3.59;71.37;99162.47;5071239;28;20032;-69
2021/01/23 10:53:04;;;;;;;60.20;26.48;;;;;;;3.70;71.39;99173.22;5070866;28;20400;-74
2021/01/23 10:55:29;;;;;;;55.83;26.27;;;;;;;2.98;71.19;99055.06;5070638;28;20052;-74
2021/01/23 10:57:55;;;;;;;57.80;25.63;;;;;;;3.68;71.39;99184.88;5071001;28;20135;-73
2021/01/23 11:00:21;;;;;;;49.50;25.20;;;;;;;3.67;72.03;99178.72;5071192;28;20036;-74
2021/01/23 11:02:46;;;;;;;53.08;25.75;;;;;;;3.68;71.14;99185.69;5071028;28;20036;-70
2021/01/23 11:05:12;;;;;;;64.30;27.30;;;;;;;3.63;71.38;99168.44;5071512;28;20037;-71
2021/01/23 11:07:38;;;;;;;56.70;27.67;;;;;;;3.70;72.08;99185.63;5070116;28;20047;-70
2021/01/23 11:10:05;;;;;;;58.55;27.45;;;;;;;3.64;71.71;99170.97;5069980;28;20032;-72
2021/01/23 11:12:30;;;;;;;58.95;26.77;;;;;;;3.69;72.05;99173.34;5069913;28;20492;-67
2021/01/23 11:14:56;;;;;;;62.13;26.80;;;;;;;3.66;71.79;99173.53;5069680;28;20037;-70
2021/01/23 11:17:21;;;;;;;55.90;26.55;;;;;;;3.46;71.50;99130.63;5069579;28;20040;-74
2021/01/23 11:19:47;;;;;;;55.97;26.02;;;;;;;3.77;71.99;99183.44;5070084;28;20115;-71
2021/01/23 11:22:12;;;;;;;58.72;26.35;;;;;;;3.75;71.42;99186.19;5067273;28;20108;-74
2021/01/23 11:24:40;;;;;;;54.78;26.33;;;;;;;3.75;72.48;99188.00;5070538;28;20062;-73
2021/01/23 11:27:05;;;;;;;58.95;26.75;;;;;;;3.68;72.29;99174.28;5071823;28;20055;-72
2021/01/23 11:29:31;;;;;;;53.67;27.13;;;;;;;3.62;72.06;99172.00;5069297;28;20052;-69